16 sierpnia 2022

Czas Kod Pogoda Temp. Widoczność Sufit Wiatr METAR/SPECI
13:25
V
29 °C 10 km+ - 240° 240° 9 kt METAR EHGG 161125Z AUTO 24009KT 180V290 9999 NSC 29/15 Q1007 NOSIG
12:55
V
28 °C 10 km+ - 210° 210° 9 kt METAR EHGG 161055Z AUTO 21009KT 160V260 9999 NCD 28/15 Q1007 NOSIG
12:25
V
27 °C 10 km+ - 220° 220° 10 kt METAR EHGG 161025Z AUTO 22010KT 190V250 9999 NSC 27/15 Q1006 NOSIG
11:55
V
27 °C 10 km+ - 220° 220° 9 kt METAR EHGG 160955Z AUTO 22009KT 170V270 9999 NCD 27/15 Q1006 NOSIG
11:25
V
26 °C 10 km+ - 220° 220° 10 kt METAR EHGG 160925Z AUTO 22010KT 170V250 9999 NCD 26/16 Q1006 NOSIG
10:55
V
25 °C 10 km+ - 240° 240° 12 kt METAR EHGG 160855Z AUTO 24012KT 9999 NCD 25/16 Q1006 NOSIG
10:25
V
25 °C 10 km+ - 230° 230° 12 kt METAR EHGG 160825Z AUTO 23012KT 9999 NCD 25/15 Q1006 NOSIG
09:55
V
23 °C 10 km+ - 220° 220° 11 kt METAR EHGG 160755Z AUTO 22011KT 9999 NCD 23/16 Q1006 NOSIG
09:25
V
22 °C 10 km+ - 210° 210° 10 kt METAR EHGG 160725Z AUTO 21010KT 180V250 9999 NCD 22/17 Q1006 NOSIG
08:55
V
21 °C 10 km+ - 200° 200° 7 kt METAR EHGG 160655Z AUTO 20007KT 170V230 9999 NSC 21/17 Q1006 NOSIG
08:25
V
21 °C 10 km+ - 190° 190° 6 kt METAR EHGG 160625Z AUTO 19006KT 160V230 9999 NSC 21/17 Q1006 NOSIG
07:55
V
19 °C 10 km+ - 170° 170° 5 kt METAR EHGG 160555Z AUTO 17005KT 140V200 9999 NCD 19/17 Q1005 NOSIG
07:25
V
18 °C 10 km+ - 160° 160° 4 kt METAR EHGG 160525Z AUTO 16004KT 9999 NCD 18/17 Q1005 NOSIG
06:55
V
16 °C 8 km - 170° 170° 2 kt METAR EHGG 160455Z AUTO 17002KT 8000 NCD 16/15 Q1005 TEMPO 4000 BR MIFG
06:25
M
17 °C 6 km - Var Var 2 kt METAR EHGG 160425Z AUTO VRB02KT 6000 NCD 17/17 Q1005 TEMPO 4000 MIFG
05:55
L
17 °C 1,4 km - 180° 180° 2 kt METAR EHGG 160355Z AUTO 18002KT 1400 R23/1700N FG NCD 17/16 Q1005 NOSIG
05:25
V
18 °C 9 km - 120° 120° 3 kt METAR EHGG 160325Z AUTO 12003KT 090V150 9000 NSC 18/17 Q1005
04:55
V
18 °C 10 km+ - 150° 150° 1 kt METAR EHGG 160255Z AUTO 15001KT 9999 NSC 18/17 Q1005
04:25
M
18 °C 7 km - Var Var 1 kt METAR EHGG 160225Z AUTO VRB01KT 7000 NSC 18/17 Q1005
03:55
M
18 °C 7 km - 130° 130° 1 kt METAR EHGG 160155Z AUTO 13001KT 7000 NSC 18/18 Q1005
03:25
V
19 °C 8 km - Var Var 1 kt METAR EHGG 160125Z AUTO VRB01KT 8000 NSC 19/18 Q1005
02:55
V
19 °C 10 km+ - 100° 100° 2 kt METAR EHGG 160055Z AUTO 10002KT 9999 FEW015CB 19/18 Q1005
02:25
V
19 °C 9 km - 090° 090° 2 kt METAR EHGG 160025Z AUTO 09002KT 9000 -RA FEW015CB 19/18 Q1005 REDZRA
01:55
V
19 °C 10 km+ - Var Var 2 kt METAR EHGG 152355Z AUTO VRB02KT 9999 FEW015CB 19/18 Q1005
01:25
V
19 °C 10 km+ - 070° 070° 3 kt METAR EHGG 152325Z AUTO 07003KT 9999 DZ FEW015CB 19/18 Q1005
00:55
V
19 °C 10 km+ - 230° 230° 2 kt METAR EHGG 152255Z AUTO 23002KT 9999 DZ FEW015CB 19/18 Q1005
00:25
V
19 °C 10 km+ - 220° 220° 4 kt METAR EHGG 152225Z AUTO 22004KT 9999 FEW015CB 19/17 Q1005

15 sierpnia 2022

Czas Kod Pogoda Temp. Widoczność Sufit Wiatr METAR/SPECI
23:55
V
19 °C 10 km+ - 240° 240° 2 kt METAR EHGG 152155Z AUTO 24002KT 9999 FEW015CB 19/17 Q1005
23:25
V
20 °C 10 km+ - 180° 180° 2 kt METAR EHGG 152125Z AUTO 18002KT 9999 FEW015CB 20/17 Q1005
22:55
V
19 °C 10 km+ - 230° 230° 4 kt METAR EHGG 152055Z AUTO 23004KT 9999 FEW015CB 19/17 Q1005
22:25
V
20 °C 10 km+ - 240° 240° 3 kt METAR EHGG 152025Z AUTO 24003KT 9999 FEW015CB 20/17 Q1005 TEMPO 7000 RA
21:55
V
21 °C 10 km+ - 250° 250° 5 kt METAR EHGG 151955Z AUTO 25005KT 9999 NSC 21/17 Q1005 NOSIG
21:25
V
21 °C 10 km+ - 270° 270° 3 kt METAR EHGG 151925Z AUTO 27003KT 9999 NSC 21/17 Q1004 NOSIG
20:55
V
22 °C 10 km+ - 260° 260° 4 kt METAR EHGG 151855Z AUTO 26004KT 9999 NSC 22/17 Q1004 NOSIG
20:25
V
23 °C 10 km+ - 350° 350° 3 kt METAR EHGG 151825Z AUTO 35003KT 280V050 9999 NSC 23/16 Q1004 NOSIG
19:55
V
23 °C 10 km+ - 360° 360° 6 kt METAR EHGG 151755Z AUTO 36006KT 330V040 9999 FEW049 23/16 Q1004 NOSIG
19:25
V
24 °C 10 km+ 3.400 ft 020° 020° 9 kt METAR EHGG 151725Z AUTO 02009KT 350V060 9999 OVC034 24/17 Q1004 NOSIG
18:55
V
25 °C 10 km+ 3.800 ft 330° 330° 8 kt METAR EHGG 151655Z AUTO 33008KT 290V020 9999 BKN038 OVC043 25/17 Q1004 NOSIG
18:25
V
26 °C 10 km+ - 300° 300° 7 kt METAR EHGG 151625Z AUTO 30007KT 250V340 9999 SCT045 26/16 Q1003 NOSIG
17:55
V
27 °C 10 km+ - 330° 330° 5 kt METAR EHGG 151555Z AUTO 33005KT 300V020 9999 FEW044 27/17 Q1003 NOSIG
17:25
V
27 °C 10 km+ - 280° 280° 7 kt METAR EHGG 151525Z AUTO 28007KT 250V310 9999 NSC 27/18 Q1003 NOSIG
16:55
V
26 °C 10 km+ - 270° 270° 7 kt METAR EHGG 151455Z AUTO 27007KT 230V310 9999 FEW031 26/19 Q1003 NOSIG
16:25
V
26 °C 10 km+ - 230° 230° 8 kt METAR EHGG 151425Z AUTO 23008KT 200V260 9999 NSC 26/19 Q1003 NOSIG
15:55
V
26 °C 10 km+ - 230° 230° 8 kt METAR EHGG 151355Z AUTO 23008KT 190V250 9999 NSC 26/18 Q1003 NOSIG
15:25
V
26 °C 10 km+ - 220° 220° 7 kt METAR EHGG 151325Z AUTO 22007KT 190V250 9999 NSC 26/18 Q1003 NOSIG
14:55
V
24 °C 10 km+ - 230° 230° 8 kt METAR EHGG 151255Z AUTO 23008KT 200V260 9999 NSC 24/19 Q1003 NOSIG
14:25
V
24 °C 10 km+ - 260° 260° 3 kt METAR EHGG 151225Z AUTO 26003KT 220V310 9999 FEW019CB 24/19 Q1003 BECMG CAVOK
13:55
V
23 °C 10 km+ - 250° 250° 7 kt METAR EHGG 151155Z AUTO 25007KT 210V290 9999 -SHRA FEW018CB 23/19 Q1003 RETS BECMG CAVOK
13:25
V
26 °C 10 km+ - 210° 210° 11 kt METAR EHGG 151125Z AUTO 21011KT 180V240 9999 TS FEW039CB 26/16 Q1003 TEMPO 6000 SHRA SCT040CB
12:55
V
28 °C 10 km+ - 190° 190° 10 kt METAR EHGG 151055Z AUTO 19010KT 9999 NSC 28/15 Q1003 TEMPO 6000 SHRA SCT040CB
12:25
V
28 °C 10 km+ - 190° 190° 9 kt METAR EHGG 151025Z AUTO 19009KT 150V230 9999 NSC 28/15 Q1002 NOSIG
11:55
V
28 °C 10 km+ - 140° 140° 6 kt METAR EHGG 150955Z AUTO 14006KT 070V190 9999 NSC 28/15 Q1002 NOSIG
11:25
V
26 °C 10 km+ - 110° 110° 5 kt METAR EHGG 150925Z AUTO 11005KT 070V160 9999 NSC 26/15 Q1003 NOSIG
10:55
V
25 °C 10 km+ - 130° 130° 5 kt METAR EHGG 150855Z AUTO 13005KT 090V180 9999 NSC 25/16 Q1003 NOSIG
10:25
V
25 °C 10 km+ - 120° 120° 6 kt METAR EHGG 150825Z AUTO 12006KT 070V170 9999 NSC 25/16 Q1002 NOSIG
09:55
V
23 °C 10 km+ - 100° 100° 5 kt METAR EHGG 150755Z AUTO 10005KT 070V150 9999 NSC 23/16 Q1002 NOSIG
09:25
V
22 °C 10 km+ - 100° 100° 5 kt METAR EHGG 150725Z AUTO 10005KT 060V150 9999 NSC 22/16 Q1002 NOSIG
08:55
V
22 °C 10 km+ - 110° 110° 3 kt METAR EHGG 150655Z AUTO 11003KT 080V160 9999 NSC 22/17 Q1002 NOSIG
08:25
V
21 °C 10 km+ - 100° 100° 3 kt METAR EHGG 150625Z AUTO 10003KT 9999 NSC 21/16 Q1002 NOSIG
07:55
V
20 °C 10 km+ - Var Var 2 kt METAR EHGG 150555Z AUTO VRB02KT 9999 NSC 20/17 Q1002 NOSIG
07:25
V
19 °C 10 km+ - Var Var 2 kt METAR EHGG 150525Z AUTO VRB02KT 9999 NSC 19/17 Q1002 NOSIG
06:55
V
17 °C 10 km+ - 050° 050° 4 kt METAR EHGG 150455Z AUTO 05004KT 9999 NSC 17/16 Q1002 NOSIG
06:25
V
17 °C 10 km+ - 110° 110° 1 kt METAR EHGG 150425Z AUTO 11001KT 9999 NSC 17/16 Q1002 NOSIG
05:55
V
19 °C 10 km+ - 080° 080° 3 kt METAR EHGG 150355Z AUTO 08003KT 9999 NSC 19/16 Q1002
05:25
V
20 °C 10 km+ - Var Var 2 kt METAR EHGG 150325Z AUTO VRB02KT 9999 NSC 20/17 Q1003
04:55
V
20 °C 10 km+ - 110° 110° 3 kt METAR EHGG 150255Z AUTO 11003KT 060V220 9999 NSC 20/17 Q1003
04:25
V
21 °C 10 km+ - 120° 120° 4 kt METAR EHGG 150225Z AUTO 12004KT 090V150 9999 NSC 21/17 Q1003
03:55
V
19 °C 10 km+ - 080° 080° 4 kt METAR EHGG 150155Z AUTO 08004KT 9999 NSC 19/17 Q1003
03:25
V
20 °C 10 km+ - 100° 100° 4 kt METAR EHGG 150125Z AUTO 10004KT 9999 NSC 20/17 Q1003
02:55
V
19 °C 10 km+ - 070° 070° 3 kt METAR EHGG 150055Z AUTO 07003KT 9999 NSC 19/16 Q1003
02:25
V
19 °C 10 km+ - 070° 070° 3 kt METAR EHGG 150025Z AUTO 07003KT 9999 NSC 19/17 Q1004
01:55
V
19 °C 10 km+ - 110° 110° 2 kt METAR EHGG 142355Z AUTO 11002KT 9999 NSC 19/17 Q1004
01:25
V
20 °C 10 km+ - 080° 080° 3 kt METAR EHGG 142325Z AUTO 08003KT 9999 NSC 20/17 Q1004
00:55
V
20 °C 10 km+ - 070° 070° 3 kt METAR EHGG 142255Z AUTO 07003KT 9999 NSC 20/17 Q1004
00:25
V
21 °C 10 km+ - 050° 050° 3 kt METAR EHGG 142225Z AUTO 05003KT 360V080 9999 NSC 21/17 Q1004

14 sierpnia 2022

Czas Kod Pogoda Temp. Widoczność Sufit Wiatr METAR/SPECI
23:55
V
21 °C 10 km+ - 060° 060° 5 kt METAR EHGG 142155Z AUTO 06005KT 9999 NSC 21/18 Q1005
23:25
V
21 °C 10 km+ - Var Var 2 kt METAR EHGG 142125Z AUTO VRB02KT 9999 NSC 21/17 Q1005
22:55
V
22 °C 10 km+ - 330° 330° 4 kt METAR EHGG 142055Z AUTO 33004KT 9999 NSC 22/17 Q1005 NOSIG
22:25
V
24 °C 10 km+ - Var Var 2 kt METAR EHGG 142025Z AUTO VRB02KT 9999 TS FEW031CB 24/17 Q1005 NOSIG
21:55
V
24 °C 10 km+ - 050° 050° 4 kt METAR EHGG 141955Z AUTO 05004KT 9999 FEW022CB 24/18 Q1005 RETS NOSIG
21:25
V
25 °C 10 km+ - 050° 050° 3 kt METAR EHGG 141925Z AUTO 05003KT 9999 NSC 25/18 Q1005 NOSIG
20:55
V
25 °C 10 km+ - 060° 060° 3 kt METAR EHGG 141855Z AUTO 06003KT 9999 NSC 25/17 Q1005 NOSIG
20:25
V
27 °C 10 km+ - 080° 080° 2 kt METAR EHGG 141825Z AUTO 08002KT 9999 FEW040CB 27/17 Q1005 NOSIG
19:55
V
27 °C 10 km+ - 090° 090° 2 kt METAR EHGG 141755Z AUTO 09002KT 9999 NSC 27/17 Q1005 NOSIG
19:25
V
29 °C 10 km+ - 100° 100° 3 kt METAR EHGG 141725Z AUTO 10003KT 060V120 9999 NSC 29/16 Q1005 NOSIG
18:55
V
30 °C 10 km+ - 080° 080° 5 kt METAR EHGG 141655Z AUTO 08005KT 060V120 9999 NSC 30/15 Q1006 NOSIG
18:25
V
30 °C 10 km+ - 080° 080° 5 kt METAR EHGG 141625Z AUTO 08005KT 050V130 9999 NSC 30/15 Q1006 NOSIG
17:55
V
30 °C 10 km+ - 110° 110° 7 kt METAR EHGG 141555Z AUTO 11007KT 080V150 9999 NSC 30/15 Q1006 NOSIG
17:25
V
30 °C 10 km+ - 100° 100° 9 kt METAR EHGG 141525Z AUTO 10009KT 050V130 9999 NSC 30/15 Q1006 NOSIG
16:55
V
30 °C 10 km+ - 100° 100° 7 kt METAR EHGG 141455Z AUTO 10007KT 060V140 9999 NSC 30/15 Q1006 NOSIG
16:25
V
30 °C 10 km+ - 110° 110° 8 kt METAR EHGG 141425Z AUTO 11008KT 070V170 9999 NSC 30/15 Q1007 NOSIG
15:55
V
31 °C 10 km+ - 100° 100° 9 kt METAR EHGG 141355Z AUTO 10009KT 050V180 9999 NSC 31/15 Q1007 NOSIG
15:25
V
30 °C 10 km+ - 130° 130° 8 kt METAR EHGG 141325Z AUTO 13008KT 080V180 9999 NSC 30/15 Q1008 NOSIG
14:55
V
30 °C 10 km+ - 110° 110° 10 kt METAR EHGG 141255Z AUTO 11010KT 060V170 9999 NSC 30/15 Q1008 NOSIG
14:25
V
30 °C 10 km+ - 120° 120° 7 kt METAR EHGG 141225Z AUTO 12007KT 070V180 9999 NSC 30/15 Q1008 NOSIG
13:55
V
29 °C 10 km+ - 130° 130° 7 kt METAR EHGG 141155Z AUTO 13007KT 050V190 9999 NSC 29/15 Q1008 NOSIG
Starsze dane

My i osoby trzecie śledzimy twoje zachowanie w internecie na naszej stronie za pomocą plików cookie. Jeśli kontynuujesz, zakładamy, że zgadzasz się z naszą polityką plików cookie. Dowiedz się więcej